Denali National Park, AK

12:40 PM AKST on February 07, 2016 (GMT -0900)
Minchumina | | Change Station
CLOSE
Current Station
Airport
Location: Minchumina,
Elevation: 702 ft
Nearby Weather Stations

Elev 702 ft 63.89 °N, 152.30 °W | Updated 4 minutes ago

Clear
Clear
0 °F
Feels Like 0 °F
N
0
Wind Variable Wind from North

Today
High -- | Low -- °F
--% Chance of Precip.
Yesterday
High -- | Low -- °F
Precip. -- in
Pressure 29.91 in
Visibility 10.0 miles
Clouds Clear
Dew Point -4 °F
Humidity 85%
Rainfall 0.00 in
Snow Depth Not available.
9:22 AM 5:13 PM
Waning Crescent, 1% visible
METAR PAMH 072136Z AUTO 00000KT 10SM CLR M18/M20 A2991 RMK AO1
Pressure 29.91 in
Visibility 10.0 miles
Clouds Clear
Dew Point -4 °F
Humidity 85%
Rainfall 0.00 in
Snow Depth Not available.
9:22 AM 5:13 PM
Waning Crescent, 1% visible
METAR PAMH 072136Z AUTO 00000KT 10SM CLR M18/M20 A2991 RMK AO1

10-Day Weather Forecast

Almanac

Astronomy

Feb. 07, 2016 Rise Set
Actual Time
Civil Twilight
Nautical Twilight
Astronomical Twilight
Moon
Length of Visible Light
Length of Day
Tomorrow will be .
, % of the Moon is Illuminated

Today's Extremes

State Highs State Lows

Community

WunderPhotos

Upload Photos

1,891,301 photos uploaded!

WunderBlog® & News

Nearby

Air Quality

  Air Quality AQ Index Pollutant
Not available.

Snow Depth

Station Depth Elevation

Earthquake Activity

City Distance Mag. Time & Date
Minimum magnitude displayed is 2.5.

Coastal Water Temperatures

Place Temperature

Stations

Nearby Weather Stations

Station Location Temp. Windchill Dew Point Humidity Wind Precip. Elev Updated Type
                   

Watches & Warnings

There are currently no watches in effect.